sensor_id;sensor_type;location;lat;lon;timestamp;pressure;altitude;pressure_sealevel;temperature;humidity
22550;BME280;11441;57.164;-2.120;2023-04-02T00:08:38;101833.72;;;6.14;100.00
22550;BME280;11441;57.164;-2.120;2023-04-02T00:11:07;101832.47;;;6.06;100.00
22550;BME280;11441;57.164;-2.120;2023-04-02T00:13:45;101837.69;;;6.21;100.00
22550;BME280;11441;57.164;-2.120;2023-04-02T00:16:19;101837.38;;;6.23;100.00
22550;BME280;11441;57.164;-2.120;2023-04-02T00:19:06;101843.81;;;6.32;100.00
22550;BME280;11441;57.164;-2.120;2023-04-02T00:21:38;101838.56;;;6.36;100.00
22550;BME280;11441;57.164;-2.120;2023-04-02T00:24:16;101839.00;;;6.43;100.00
22550;BME280;11441;57.164;-2.120;2023-04-02T00:26:47;101846.16;;;6.39;100.00
22550;BME280;11441;57.164;-2.120;2023-04-02T00:29:15;101848.44;;;6.51;100.00
22550;BME280;11441;57.164;-2.120;2023-04-02T00:31:52;101848.28;;;6.61;100.00
22550;BME280;11441;57.164;-2.120;2023-04-02T00:34:31;101859.50;;;6.59;100.00
22550;BME280;11441;57.164;-2.120;2023-04-02T00:36:58;101856.19;;;6.63;100.00
22550;BME280;11441;57.164;-2.120;2023-04-02T00:39:28;101861.44;;;6.59;100.00
22550;BME280;11441;57.164;-2.120;2023-04-02T00:41:57;101866.03;;;6.64;100.00
22550;BME280;11441;57.164;-2.120;2023-04-02T00:44:36;101869.50;;;6.69;100.00
22550;BME280;11441;57.164;-2.120;2023-04-02T00:47:20;101869.28;;;6.66;100.00
22550;BME280;11441;57.164;-2.120;2023-04-02T00:49:53;101881.91;;;6.61;100.00
22550;BME280;11441;57.164;-2.120;2023-04-02T00:52:25;101883.47;;;6.68;100.00
22550;BME280;11441;57.164;-2.120;2023-04-02T00:57:33;101892.19;;;6.70;100.00
22550;BME280;11441;57.164;-2.120;2023-04-02T01:00:27;101892.41;;;6.73;100.00
22550;BME280;11441;57.164;-2.120;2023-04-02T01:03:14;101895.44;;;6.72;100.00
22550;BME280;11441;57.164;-2.120;2023-04-02T01:06:17;101896.56;;;6.71;100.00
22550;BME280;11441;57.164;-2.120;2023-04-02T01:11:31;101901.66;;;6.77;100.00
22550;BME280;11441;57.164;-2.120;2023-04-02T01:14:50;101898.59;;;6.79;100.00
22550;BME280;11441;57.164;-2.120;2023-04-02T01:22:27;101914.41;;;6.68;100.00
22550;BME280;11441;57.164;-2.120;2023-04-02T01:25:24;101921.44;;;6.74;100.00
22550;BME280;11441;57.164;-2.120;2023-04-02T01:28:21;101924.03;;;6.66;100.00
22550;BME280;11441;57.164;-2.120;2023-04-02T01:30:53;101924.53;;;6.68;100.00
22550;BME280;11441;57.164;-2.120;2023-04-02T01:33:23;101931.13;;;6.67;100.00
22550;BME280;11441;57.164;-2.120;2023-04-02T01:36:10;101924.63;;;6.63;100.00
22550;BME280;11441;57.164;-2.120;2023-04-02T01:47:23;101924.88;;;6.80;100.00
22550;BME280;11441;57.164;-2.120;2023-04-02T01:52:50;101933.53;;;6.87;100.00
22550;BME280;11441;57.164;-2.120;2023-04-02T01:55:28;101930.97;;;6.77;100.00
22550;BME280;11441;57.164;-2.120;2023-04-02T01:57:57;101927.13;;;6.78;100.00
22550;BME280;11441;57.164;-2.120;2023-04-02T02:00:26;101934.75;;;6.81;100.00
22550;BME280;11441;57.164;-2.120;2023-04-02T02:02:58;101932.00;;;6.81;100.00
22550;BME280;11441;57.164;-2.120;2023-04-02T02:05:26;101931.47;;;6.79;100.00
22550;BME280;11441;57.164;-2.120;2023-04-02T02:07:55;101946.13;;;6.88;100.00
22550;BME280;11441;57.164;-2.120;2023-04-02T02:10:33;101952.47;;;6.84;100.00
22550;BME280;11441;57.164;-2.120;2023-04-02T02:13:01;101971.47;;;6.61;100.00
22550;BME280;11441;57.164;-2.120;2023-04-02T02:15:32;101976.06;;;6.47;100.00
22550;BME280;11441;57.164;-2.120;2023-04-02T02:18:04;101976.56;;;6.49;100.00
22550;BME280;11441;57.164;-2.120;2023-04-02T02:20:33;101975.84;;;6.43;100.00
22550;BME280;11441;57.164;-2.120;2023-04-02T02:23:00;101978.56;;;6.62;100.00
22550;BME280;11441;57.164;-2.120;2023-04-02T02:25:31;101962.00;;;6.72;100.00
22550;BME280;11441;57.164;-2.120;2023-04-02T02:31:03;101980.91;;;6.69;100.00
22550;BME280;11441;57.164;-2.120;2023-04-02T02:33:51;101971.91;;;6.68;100.00
22550;BME280;11441;57.164;-2.120;2023-04-02T02:36:34;101977.88;;;6.70;100.00
22550;BME280;11441;57.164;-2.120;2023-04-02T02:42:08;101986.78;;;6.62;100.00
22550;BME280;11441;57.164;-2.120;2023-04-02T02:44:42;101989.66;;;6.52;100.00
22550;BME280;11441;57.164;-2.120;2023-04-02T02:47:17;101994.56;;;6.55;100.00
22550;BME280;11441;57.164;-2.120;2023-04-02T02:49:47;101987.00;;;6.47;100.00
22550;BME280;11441;57.164;-2.120;2023-04-02T02:52:20;101997.03;;;6.51;100.00
22550;BME280;11441;57.164;-2.120;2023-04-02T02:55:17;102001.19;;;6.49;100.00
22550;BME280;11441;57.164;-2.120;2023-04-02T02:58:15;102006.53;;;6.59;100.00
22550;BME280;11441;57.164;-2.120;2023-04-02T03:01:22;102009.94;;;6.51;100.00
22550;BME280;11441;57.164;-2.120;2023-04-02T03:03:53;102006.16;;;6.47;100.00
22550;BME280;11441;57.164;-2.120;2023-04-02T03:06:23;102011.19;;;6.58;100.00
22550;BME280;11441;57.164;-2.120;2023-04-02T03:09:35;102010.44;;;6.72;100.00
22550;BME280;11441;57.164;-2.120;2023-04-02T03:12:33;102012.00;;;6.59;100.00
22550;BME280;11441;57.164;-2.120;2023-04-02T03:23:46;102032.94;;;6.50;100.00
22550;BME280;11441;57.164;-2.120;2023-04-02T03:26:22;102038.81;;;6.62;100.00
22550;BME280;11441;57.164;-2.120;2023-04-02T03:29:35;102047.88;;;6.57;100.00
22550;BME280;11441;57.164;-2.120;2023-04-02T03:32:29;102049.94;;;6.47;100.00
22550;BME280;11441;57.164;-2.120;2023-04-02T03:35:46;102058.41;;;6.50;100.00
22550;BME280;11441;57.164;-2.120;2023-04-02T03:37:54;102055.59;;;6.55;100.00
22550;BME280;11441;57.164;-2.120;2023-04-02T03:41:00;102060.16;;;6.41;100.00
22550;BME280;11441;57.164;-2.120;2023-04-02T03:43:23;102065.16;;;6.34;100.00
22550;BME280;11441;57.164;-2.120;2023-04-02T03:45:58;102071.78;;;6.52;100.00
22550;BME280;11441;57.164;-2.120;2023-04-02T03:48:40;102069.63;;;6.49;100.00
22550;BME280;11441;57.164;-2.120;2023-04-02T03:53:47;102074.94;;;6.40;100.00
22550;BME280;11441;57.164;-2.120;2023-04-02T03:56:35;102082.34;;;6.39;100.00
22550;BME280;11441;57.164;-2.120;2023-04-02T03:59:17;102080.06;;;6.47;100.00
22550;BME280;11441;57.164;-2.120;2023-04-02T04:04:40;102093.28;;;6.39;100.00
22550;BME280;11441;57.164;-2.120;2023-04-02T04:07:17;102086.06;;;6.49;100.00
22550;BME280;11441;57.164;-2.120;2023-04-02T04:09:50;102085.47;;;6.52;100.00
22550;BME280;11441;57.164;-2.120;2023-04-02T04:12:26;102090.88;;;6.57;100.00
22550;BME280;11441;57.164;-2.120;2023-04-02T04:15:03;102095.53;;;6.56;100.00
22550;BME280;11441;57.164;-2.120;2023-04-02T04:20:35;102103.28;;;6.49;100.00
22550;BME280;11441;57.164;-2.120;2023-04-02T04:23:16;102101.00;;;6.56;100.00
22550;BME280;11441;57.164;-2.120;2023-04-02T04:25:45;102099.59;;;6.59;100.00
22550;BME280;11441;57.164;-2.120;2023-04-02T04:28:35;102102.41;;;6.54;100.00
22550;BME280;11441;57.164;-2.120;2023-04-02T04:34:17;102100.84;;;6.48;100.00
22550;BME280;11441;57.164;-2.120;2023-04-02T04:36:59;102091.25;;;6.50;100.00
22550;BME280;11441;57.164;-2.120;2023-04-02T04:39:39;102102.19;;;6.50;100.00
22550;BME280;11441;57.164;-2.120;2023-04-02T04:42:16;102109.28;;;6.51;100.00
22550;BME280;11441;57.164;-2.120;2023-04-02T04:45:15;102105.22;;;6.49;100.00
22550;BME280;11441;57.164;-2.120;2023-04-02T04:48:01;102122.97;;;6.51;100.00
22550;BME280;11441;57.164;-2.120;2023-04-02T04:50:36;102117.41;;;6.56;100.00
22550;BME280;11441;57.164;-2.120;2023-04-02T04:53:05;102126.25;;;6.53;100.00
22550;BME280;11441;57.164;-2.120;2023-04-02T04:55:39;102125.84;;;6.41;100.00
22550;BME280;11441;57.164;-2.120;2023-04-02T04:58:22;102131.25;;;6.46;100.00
22550;BME280;11441;57.164;-2.120;2023-04-02T05:04:10;102124.03;;;6.55;100.00
22550;BME280;11441;57.164;-2.120;2023-04-02T05:09:44;102133.63;;;6.53;100.00
22550;BME280;11441;57.164;-2.120;2023-04-02T05:12:32;102141.19;;;6.61;100.00
22550;BME280;11441;57.164;-2.120;2023-04-02T05:15:19;102145.41;;;6.53;100.00
22550;BME280;11441;57.164;-2.120;2023-04-02T05:18:11;102151.84;;;6.63;100.00
22550;BME280;11441;57.164;-2.120;2023-04-02T05:20:49;102154.66;;;6.57;100.00
22550;BME280;11441;57.164;-2.120;2023-04-02T05:23:30;102154.81;;;6.66;100.00
22550;BME280;11441;57.164;-2.120;2023-04-02T05:26:11;102156.81;;;6.60;100.00
22550;BME280;11441;57.164;-2.120;2023-04-02T05:34:12;102168.69;;;6.75;100.00
22550;BME280;11441;57.164;-2.120;2023-04-02T05:36:45;102166.22;;;6.73;100.00
22550;BME280;11441;57.164;-2.120;2023-04-02T05:39:20;102173.25;;;6.60;100.00
22550;BME280;11441;57.164;-2.120;2023-04-02T05:44:41;102177.53;;;6.67;100.00
22550;BME280;11441;57.164;-2.120;2023-04-02T05:47:28;102181.34;;;6.71;100.00
22550;BME280;11441;57.164;-2.120;2023-04-02T05:52:40;102182.88;;;6.77;100.00
22550;BME280;11441;57.164;-2.120;2023-04-02T05:57:50;102195.78;;;6.76;100.00
22550;BME280;11441;57.164;-2.120;2023-04-02T06:03:31;102199.59;;;6.75;100.00
22550;BME280;11441;57.164;-2.120;2023-04-02T06:06:11;102205.38;;;6.74;100.00
22550;BME280;11441;57.164;-2.120;2023-04-02T06:09:02;102218.53;;;6.72;100.00
22550;BME280;11441;57.164;-2.120;2023-04-02T06:11:45;102217.69;;;6.76;100.00
22550;BME280;11441;57.164;-2.120;2023-04-02T06:14:16;102200.50;;;6.71;100.00
22550;BME280;11441;57.164;-2.120;2023-04-02T06:16:45;102208.44;;;6.72;100.00
22550;BME280;11441;57.164;-2.120;2023-04-02T06:19:25;102210.56;;;6.75;100.00
22550;BME280;11441;57.164;-2.120;2023-04-02T06:21:58;102218.53;;;6.72;100.00
22550;BME280;11441;57.164;-2.120;2023-04-02T06:24:46;102223.78;;;6.68;100.00
22550;BME280;11441;57.164;-2.120;2023-04-02T06:27:18;102219.38;;;6.72;100.00
22550;BME280;11441;57.164;-2.120;2023-04-02T06:30:17;102221.44;;;6.80;100.00
22550;BME280;11441;57.164;-2.120;2023-04-02T06:32:48;102223.31;;;6.85;100.00
22550;BME280;11441;57.164;-2.120;2023-04-02T06:35:16;102217.03;;;6.85;100.00
22550;BME280;11441;57.164;-2.120;2023-04-02T06:37:47;102220.81;;;6.89;100.00
22550;BME280;11441;57.164;-2.120;2023-04-02T06:40:27;102229.59;;;6.61;100.00
22550;BME280;11441;57.164;-2.120;2023-04-02T06:43:16;102233.53;;;6.79;100.00
22550;BME280;11441;57.164;-2.120;2023-04-02T06:46:18;102229.78;;;6.94;100.00
22550;BME280;11441;57.164;-2.120;2023-04-02T06:52:24;102239.06;;;6.98;100.00
22550;BME280;11441;57.164;-2.120;2023-04-02T06:54:52;102244.47;;;7.04;100.00
22550;BME280;11441;57.164;-2.120;2023-04-02T06:57:19;102248.38;;;6.97;100.00
22550;BME280;11441;57.164;-2.120;2023-04-02T06:59:48;102246.16;;;6.99;100.00
22550;BME280;11441;57.164;-2.120;2023-04-02T07:02:26;102253.50;;;7.04;100.00
22550;BME280;11441;57.164;-2.120;2023-04-02T07:05:01;102255.44;;;7.04;100.00
22550;BME280;11441;57.164;-2.120;2023-04-02T07:07:31;102257.56;;;7.07;100.00
22550;BME280;11441;57.164;-2.120;2023-04-02T07:10:01;102260.91;;;7.04;100.00
22550;BME280;11441;57.164;-2.120;2023-04-02T07:12:28;102266.63;;;7.07;100.00
22550;BME280;11441;57.164;-2.120;2023-04-02T07:14:55;102272.50;;;7.20;100.00
22550;BME280;11441;57.164;-2.120;2023-04-02T07:17:22;102273.06;;;7.16;100.00
22550;BME280;11441;57.164;-2.120;2023-04-02T07:19:49;102270.38;;;7.11;100.00
22550;BME280;11441;57.164;-2.120;2023-04-02T07:22:19;102277.50;;;7.12;100.00
22550;BME280;11441;57.164;-2.120;2023-04-02T07:24:52;102282.88;;;6.98;100.00
22550;BME280;11441;57.164;-2.120;2023-04-02T07:27:19;102287.59;;;6.93;100.00
22550;BME280;11441;57.164;-2.120;2023-04-02T07:29:46;102289.63;;;7.06;100.00
22550;BME280;11441;57.164;-2.120;2023-04-02T07:32:13;102290.16;;;6.84;100.00
22550;BME280;11441;57.164;-2.120;2023-04-02T07:34:40;102292.09;;;7.08;100.00
22550;BME280;11441;57.164;-2.120;2023-04-02T07:37:10;102291.78;;;7.09;100.00
22550;BME280;11441;57.164;-2.120;2023-04-02T07:39:38;102296.31;;;7.19;100.00
22550;BME280;11441;57.164;-2.120;2023-04-02T07:42:06;102294.63;;;7.23;100.00
22550;BME280;11441;57.164;-2.120;2023-04-02T07:44:33;102288.03;;;7.00;100.00
22550;BME280;11441;57.164;-2.120;2023-04-02T07:47:00;102299.66;;;7.16;100.00
22550;BME280;11441;57.164;-2.120;2023-04-02T07:49:27;102298.94;;;7.29;100.00
22550;BME280;11441;57.164;-2.120;2023-04-02T07:51:54;102296.88;;;7.21;100.00
22550;BME280;11441;57.164;-2.120;2023-04-02T07:54:21;102303.84;;;7.32;100.00
22550;BME280;11441;57.164;-2.120;2023-04-02T07:56:47;102308.91;;;7.20;100.00
22550;BME280;11441;57.164;-2.120;2023-04-02T07:59:14;102313.03;;;6.98;100.00
22550;BME280;11441;57.164;-2.120;2023-04-02T08:01:41;102308.06;;;7.01;100.00
22550;BME280;11441;57.164;-2.120;2023-04-02T08:04:16;102321.34;;;7.12;100.00
22550;BME280;11441;57.164;-2.120;2023-04-02T08:06:44;102328.16;;;7.15;100.00
22550;BME280;11441;57.164;-2.120;2023-04-02T08:09:12;102318.06;;;7.34;100.00
22550;BME280;11441;57.164;-2.120;2023-04-02T08:11:39;102324.78;;;7.23;100.00
22550;BME280;11441;57.164;-2.120;2023-04-02T08:14:25;102323.59;;;7.29;100.00
22550;BME280;11441;57.164;-2.120;2023-04-02T08:16:53;102330.09;;;6.90;100.00
22550;BME280;11441;57.164;-2.120;2023-04-02T08:19:22;102326.22;;;7.15;100.00
22550;BME280;11441;57.164;-2.120;2023-04-02T08:21:49;102334.91;;;7.23;100.00
22550;BME280;11441;57.164;-2.120;2023-04-02T08:24:18;102334.91;;;7.23;100.00
22550;BME280;11441;57.164;-2.120;2023-04-02T08:26:46;102330.28;;;7.23;100.00
22550;BME280;11441;57.164;-2.120;2023-04-02T08:29:13;102333.69;;;7.10;100.00
22550;BME280;11441;57.164;-2.120;2023-04-02T08:31:40;102343.97;;;7.23;100.00
22550;BME280;11441;57.164;-2.120;2023-04-02T08:34:25;102335.69;;;7.28;100.00
22550;BME280;11441;57.164;-2.120;2023-04-02T08:36:57;102341.09;;;7.33;100.00
22550;BME280;11441;57.164;-2.120;2023-04-02T08:39:24;102340.56;;;7.31;100.00
22550;BME280;11441;57.164;-2.120;2023-04-02T08:42:03;102346.88;;;7.32;100.00
22550;BME280;11441;57.164;-2.120;2023-04-02T08:44:47;102342.09;;;7.43;100.00
22550;BME280;11441;57.164;-2.120;2023-04-02T08:47:16;102342.22;;;7.32;100.00
22550;BME280;11441;57.164;-2.120;2023-04-02T08:49:49;102347.06;;;7.16;100.00
22550;BME280;11441;57.164;-2.120;2023-04-02T08:52:22;102346.75;;;7.42;100.00
22550;BME280;11441;57.164;-2.120;2023-04-02T08:54:49;102345.00;;;7.51;100.00
22550;BME280;11441;57.164;-2.120;2023-04-02T08:57:25;102349.94;;;7.49;100.00
22550;BME280;11441;57.164;-2.120;2023-04-02T09:03:03;102366.69;;;7.48;100.00
22550;BME280;11441;57.164;-2.120;2023-04-02T09:05:52;102358.47;;;7.48;100.00
22550;BME280;11441;57.164;-2.120;2023-04-02T09:08:39;102364.34;;;7.60;100.00
22550;BME280;11441;57.164;-2.120;2023-04-02T09:11:34;102365.38;;;7.64;100.00
22550;BME280;11441;57.164;-2.120;2023-04-02T09:14:00;102369.75;;;7.65;100.00
22550;BME280;11441;57.164;-2.120;2023-04-02T09:16:42;102376.72;;;7.77;100.00
22550;BME280;11441;57.164;-2.120;2023-04-02T09:19:17;102377.84;;;7.76;100.00
22550;BME280;11441;57.164;-2.120;2023-04-02T09:24:32;102378.06;;;7.60;100.00
22550;BME280;11441;57.164;-2.120;2023-04-02T09:26:59;102377.63;;;7.72;100.00
22550;BME280;11441;57.164;-2.120;2023-04-02T09:29:42;102384.66;;;7.78;100.00
22550;BME280;11441;57.164;-2.120;2023-04-02T09:32:32;102391.56;;;7.76;100.00
22550;BME280;11441;57.164;-2.120;2023-04-02T09:35:27;102397.06;;;7.76;100.00
22550;BME280;11441;57.164;-2.120;2023-04-02T09:38:10;102393.97;;;7.82;100.00
22550;BME280;11441;57.164;-2.120;2023-04-02T09:40:43;102393.72;;;7.79;100.00
22550;BME280;11441;57.164;-2.120;2023-04-02T09:46:22;102396.00;;;7.71;100.00
22550;BME280;11441;57.164;-2.120;2023-04-02T09:48:54;102412.38;;;7.77;100.00
22550;BME280;11441;57.164;-2.120;2023-04-02T09:51:25;102413.97;;;8.02;100.00
22550;BME280;11441;57.164;-2.120;2023-04-02T09:56:30;102416.63;;;7.88;100.00
22550;BME280;11441;57.164;-2.120;2023-04-02T09:59:17;102423.44;;;7.90;100.00
22550;BME280;11441;57.164;-2.120;2023-04-02T10:04:38;102423.09;;;7.97;100.00
22550;BME280;11441;57.164;-2.120;2023-04-02T10:07:45;102424.88;;;7.88;100.00
22550;BME280;11441;57.164;-2.120;2023-04-02T10:10:29;102442.81;;;7.99;100.00
22550;BME280;11441;57.164;-2.120;2023-04-02T10:13:01;102433.28;;;7.72;100.00
22550;BME280;11441;57.164;-2.120;2023-04-02T10:15:58;102450.44;;;7.83;100.00
22550;BME280;11441;57.164;-2.120;2023-04-02T10:21:27;102448.22;;;7.85;100.00
22550;BME280;11441;57.164;-2.120;2023-04-02T10:24:15;102456.88;;;7.73;100.00
22550;BME280;11441;57.164;-2.120;2023-04-02T10:32:54;102466.09;;;7.83;100.00
22550;BME280;11441;57.164;-2.120;2023-04-02T10:40:59;102476.59;;;8.00;100.00
22550;BME280;11441;57.164;-2.120;2023-04-02T10:51:59;102483.06;;;8.28;100.00
22550;BME280;11441;57.164;-2.120;2023-04-02T10:57:03;102480.81;;;8.11;100.00
22550;BME280;11441;57.164;-2.120;2023-04-02T10:59:39;102483.63;;;8.06;100.00
22550;BME280;11441;57.164;-2.120;2023-04-02T11:02:31;102486.69;;;8.23;100.00
22550;BME280;11441;57.164;-2.120;2023-04-02T11:05:06;102489.06;;;8.30;100.00
22550;BME280;11441;57.164;-2.120;2023-04-02T11:07:47;102483.38;;;8.45;100.00
22550;BME280;11441;57.164;-2.120;2023-04-02T11:10:19;102488.06;;;8.45;100.00
22550;BME280;11441;57.164;-2.120;2023-04-02T11:12:54;102488.94;;;8.40;100.00
22550;BME280;11441;57.164;-2.120;2023-04-02T11:15:22;102492.28;;;8.56;100.00
22550;BME280;11441;57.164;-2.120;2023-04-02T11:17:49;102491.31;;;8.66;100.00
22550;BME280;11441;57.164;-2.120;2023-04-02T11:23:11;102480.78;;;8.54;100.00
22550;BME280;11441;57.164;-2.120;2023-04-02T11:25:40;102494.66;;;8.44;100.00
22550;BME280;11441;57.164;-2.120;2023-04-02T11:31:18;102500.81;;;8.74;100.00
22550;BME280;11441;57.164;-2.120;2023-04-02T11:33:46;102497.50;;;8.58;100.00
22550;BME280;11441;57.164;-2.120;2023-04-02T11:39:51;102504.22;;;8.84;100.00
22550;BME280;11441;57.164;-2.120;2023-04-02T11:44:53;102516.56;;;8.68;100.00
22550;BME280;11441;57.164;-2.120;2023-04-02T11:47:22;102512.28;;;8.95;100.00
22550;BME280;11441;57.164;-2.120;2023-04-02T11:52:26;102525.09;;;8.47;100.00
22550;BME280;11441;57.164;-2.120;2023-04-02T11:55:00;102515.19;;;8.84;100.00
22550;BME280;11441;57.164;-2.120;2023-04-02T11:57:45;102526.63;;;8.92;100.00
22550;BME280;11441;57.164;-2.120;2023-04-02T12:12:23;102516.22;;;9.08;100.00
22550;BME280;11441;57.164;-2.120;2023-04-02T12:14:54;102520.53;;;8.95;100.00
22550;BME280;11441;57.164;-2.120;2023-04-02T12:17:33;102526.16;;;9.03;100.00
22550;BME280;11441;57.164;-2.120;2023-04-02T12:20:17;102543.03;;;8.97;100.00
22550;BME280;11441;57.164;-2.120;2023-04-02T12:22:49;102529.50;;;9.00;100.00
22550;BME280;11441;57.164;-2.120;2023-04-02T12:27:47;102540.81;;;8.99;100.00
22550;BME280;11441;57.164;-2.120;2023-04-02T12:30:20;102532.13;;;8.92;100.00
22550;BME280;11441;57.164;-2.120;2023-04-02T12:32:48;102547.06;;;8.85;100.00
22550;BME280;11441;57.164;-2.120;2023-04-02T12:35:30;102540.91;;;8.75;100.00
22550;BME280;11441;57.164;-2.120;2023-04-02T12:38:25;102545.28;;;8.76;100.00
22550;BME280;11441;57.164;-2.120;2023-04-02T12:41:01;102545.13;;;8.86;100.00
22550;BME280;11441;57.164;-2.120;2023-04-02T12:43:31;102547.22;;;8.94;100.00
22550;BME280;11441;57.164;-2.120;2023-04-02T12:46:01;102548.59;;;9.11;100.00
22550;BME280;11441;57.164;-2.120;2023-04-02T12:48:29;102553.16;;;8.82;100.00
22550;BME280;11441;57.164;-2.120;2023-04-02T12:50:57;102535.72;;;8.73;100.00
22550;BME280;11441;57.164;-2.120;2023-04-02T12:53:39;102555.09;;;8.63;100.00
22550;BME280;11441;57.164;-2.120;2023-04-02T12:56:07;102559.38;;;8.88;100.00
22550;BME280;11441;57.164;-2.120;2023-04-02T12:58:52;102562.38;;;9.24;100.00
22550;BME280;11441;57.164;-2.120;2023-04-02T13:01:23;102568.16;;;8.90;100.00
22550;BME280;11441;57.164;-2.120;2023-04-02T13:04:11;102560.34;;;8.97;100.00
22550;BME280;11441;57.164;-2.120;2023-04-02T13:06:39;102569.13;;;8.99;100.00
22550;BME280;11441;57.164;-2.120;2023-04-02T13:09:41;102565.75;;;9.21;100.00
22550;BME280;11441;57.164;-2.120;2023-04-02T13:12:26;102568.50;;;9.21;100.00
22550;BME280;11441;57.164;-2.120;2023-04-02T13:15:26;102575.41;;;9.19;100.00
22550;BME280;11441;57.164;-2.120;2023-04-02T13:18:18;102569.94;;;9.33;100.00
22550;BME280;11441;57.164;-2.120;2023-04-02T13:21:00;102577.59;;;9.36;100.00
22550;BME280;11441;57.164;-2.120;2023-04-02T13:25:57;102571.22;;;9.54;100.00
22550;BME280;11441;57.164;-2.120;2023-04-02T13:28:25;102569.78;;;9.43;100.00
22550;BME280;11441;57.164;-2.120;2023-04-02T13:30:51;102578.41;;;9.36;100.00
22550;BME280;11441;57.164;-2.120;2023-04-02T13:33:37;102563.69;;;9.13;100.00
22550;BME280;11441;57.164;-2.120;2023-04-02T13:36:04;102580.66;;;9.34;100.00
22550;BME280;11441;57.164;-2.120;2023-04-02T13:38:31;102561.31;;;9.39;100.00
22550;BME280;11441;57.164;-2.120;2023-04-02T13:40:57;102567.63;;;9.40;100.00
22550;BME280;11441;57.164;-2.120;2023-04-02T13:43:24;102575.78;;;9.45;100.00
22550;BME280;11441;57.164;-2.120;2023-04-02T13:45:53;102566.72;;;9.44;100.00
22550;BME280;11441;57.164;-2.120;2023-04-02T13:48:20;102570.00;;;9.47;100.00
22550;BME280;11441;57.164;-2.120;2023-04-02T13:50:51;102579.03;;;9.14;100.00
22550;BME280;11441;57.164;-2.120;2023-04-02T13:53:37;102575.50;;;9.47;100.00
22550;BME280;11441;57.164;-2.120;2023-04-02T13:56:04;102583.63;;;9.38;100.00
22550;BME280;11441;57.164;-2.120;2023-04-02T13:58:31;102574.38;;;9.15;100.00
22550;BME280;11441;57.164;-2.120;2023-04-02T14:00:59;102572.59;;;9.05;100.00
22550;BME280;11441;57.164;-2.120;2023-04-02T14:03:28;102575.44;;;9.33;100.00
22550;BME280;11441;57.164;-2.120;2023-04-02T14:20:02;102555.38;;;9.65;100.00
22550;BME280;11441;57.164;-2.120;2023-04-02T14:28:24;102559.03;;;9.74;100.00
22550;BME280;11441;57.164;-2.120;2023-04-02T14:36:12;102556.97;;;9.66;100.00
22550;BME280;11441;57.164;-2.120;2023-04-02T14:39:02;102553.63;;;9.69;100.00
22550;BME280;11441;57.164;-2.120;2023-04-02T14:41:50;102555.56;;;9.69;100.00
22550;BME280;11441;57.164;-2.120;2023-04-02T14:44:22;102562.41;;;9.38;100.00
22550;BME280;11441;57.164;-2.120;2023-04-02T14:46:55;102561.00;;;9.41;100.00
22550;BME280;11441;57.164;-2.120;2023-04-02T14:49:29;102561.53;;;9.43;100.00
22550;BME280;11441;57.164;-2.120;2023-04-02T14:52:02;102559.16;;;9.83;100.00
22550;BME280;11441;57.164;-2.120;2023-04-02T14:54:43;102564.44;;;9.66;100.00
22550;BME280;11441;57.164;-2.120;2023-04-02T14:57:38;102564.22;;;9.76;100.00
22550;BME280;11441;57.164;-2.120;2023-04-02T15:00:54;102568.09;;;9.75;100.00
22550;BME280;11441;57.164;-2.120;2023-04-02T15:03:20;102556.84;;;9.57;100.00
22550;BME280;11441;57.164;-2.120;2023-04-02T15:05:57;102556.59;;;9.73;100.00
22550;BME280;11441;57.164;-2.120;2023-04-02T15:08:28;102563.44;;;9.29;100.00
22550;BME280;11441;57.164;-2.120;2023-04-02T15:13:40;102567.28;;;9.28;100.00
22550;BME280;11441;57.164;-2.120;2023-04-02T15:16:16;102557.59;;;9.16;100.00
22550;BME280;11441;57.164;-2.120;2023-04-02T15:18:45;102567.31;;;9.09;100.00
22550;BME280;11441;57.164;-2.120;2023-04-02T15:27:45;102567.06;;;9.24;100.00
22550;BME280;11441;57.164;-2.120;2023-04-02T15:32:49;102588.34;;;9.18;100.00
22550;BME280;11441;57.164;-2.120;2023-04-02T15:35:39;102592.91;;;9.23;100.00
22550;BME280;11441;57.164;-2.120;2023-04-02T15:38:22;102587.41;;;9.23;100.00
22550;BME280;11441;57.164;-2.120;2023-04-02T15:41:02;102585.16;;;9.11;100.00
22550;BME280;11441;57.164;-2.120;2023-04-02T15:52:57;102598.22;;;9.00;100.00
22550;BME280;11441;57.164;-2.120;2023-04-02T15:55:38;102604.50;;;9.39;100.00
22550;BME280;11441;57.164;-2.120;2023-04-02T16:01:10;102598.06;;;8.92;100.00
22550;BME280;11441;57.164;-2.120;2023-04-02T16:09:21;102600.97;;;9.00;100.00
22550;BME280;11441;57.164;-2.120;2023-04-02T16:11:57;102602.16;;;9.13;100.00
22550;BME280;11441;57.164;-2.120;2023-04-02T16:14:29;102607.16;;;9.11;100.00
22550;BME280;11441;57.164;-2.120;2023-04-02T16:17:04;102601.38;;;8.94;100.00
22550;BME280;11441;57.164;-2.120;2023-04-02T16:19:59;102600.59;;;8.88;100.00
22550;BME280;11441;57.164;-2.120;2023-04-02T16:22:30;102611.44;;;8.98;100.00
22550;BME280;11441;57.164;-2.120;2023-04-02T16:25:05;102604.03;;;9.18;100.00
22550;BME280;11441;57.164;-2.120;2023-04-02T16:28:20;102607.31;;;9.01;100.00
22550;BME280;11441;57.164;-2.120;2023-04-02T16:31:24;102612.50;;;9.21;100.00
22550;BME280;11441;57.164;-2.120;2023-04-02T16:42:28;102618.88;;;8.79;100.00
22550;BME280;11441;57.164;-2.120;2023-04-02T16:51:05;102612.44;;;8.89;100.00
22550;BME280;11441;57.164;-2.120;2023-04-02T16:53:57;102614.97;;;9.04;100.00
22550;BME280;11441;57.164;-2.120;2023-04-02T17:05:01;102617.25;;;8.97;100.00
22550;BME280;11441;57.164;-2.120;2023-04-02T17:07:55;102610.03;;;9.01;100.00
22550;BME280;11441;57.164;-2.120;2023-04-02T17:10:55;102611.88;;;9.05;100.00
22550;BME280;11441;57.164;-2.120;2023-04-02T17:13:43;102608.19;;;8.77;100.00
22550;BME280;11441;57.164;-2.120;2023-04-02T17:16:39;102621.03;;;8.63;100.00
22550;BME280;11441;57.164;-2.120;2023-04-02T17:19:13;102638.09;;;8.79;100.00
22550;BME280;11441;57.164;-2.120;2023-04-02T17:22:01;102637.06;;;8.75;100.00